createdAt,value
2018-12-31T00:02:14.636Z,9.70
2018-12-31T00:04:45.076Z,8.20
2018-12-31T00:07:15.746Z,10.80
2018-12-31T00:09:46.362Z,8.17
2018-12-31T00:12:16.874Z,9.10
2018-12-31T00:14:47.709Z,8.07
2018-12-31T00:17:18.417Z,7.53
2018-12-31T00:19:49.085Z,8.40
2018-12-31T00:22:19.659Z,8.07
2018-12-31T00:24:50.468Z,8.10
2018-12-31T00:27:21.687Z,7.97
2018-12-31T00:29:52.733Z,9.47
2018-12-31T00:32:23.671Z,9.30
2018-12-31T00:34:54.758Z,9.20
2018-12-31T00:37:25.838Z,8.90
2018-12-31T00:39:58.083Z,8.37
2018-12-31T00:42:28.963Z,7.93
2018-12-31T00:45:00.730Z,7.50
2018-12-31T00:47:31.531Z,7.87
2018-12-31T00:50:02.477Z,6.80
2018-12-31T00:52:33.183Z,7.63
2018-12-31T00:55:04.045Z,9.67
2018-12-31T00:57:35.899Z,7.83
2018-12-31T01:00:06.966Z,7.27
2018-12-31T01:02:37.573Z,7.30
2018-12-31T01:05:08.163Z,7.43
2018-12-31T01:07:38.696Z,7.47
2018-12-31T01:10:09.297Z,6.83
2018-12-31T01:12:41.321Z,7.40
2018-12-31T01:15:12.161Z,7.63
2018-12-31T01:17:42.727Z,7.67
2018-12-31T01:20:13.442Z,7.30
2018-12-31T01:22:44.421Z,7.97
2018-12-31T01:25:15.090Z,7.40
2018-12-31T01:27:46.027Z,7.37
2018-12-31T01:30:16.790Z,8.60
2018-12-31T01:32:47.608Z,7.33
2018-12-31T01:35:18.117Z,6.43
2018-12-31T01:37:49.032Z,7.03
2018-12-31T01:40:19.981Z,7.50
2018-12-31T01:42:51.454Z,6.60
2018-12-31T01:45:22.116Z,6.67
2018-12-31T01:47:52.826Z,6.97
2018-12-31T01:50:23.459Z,6.53
2018-12-31T01:52:54.334Z,7.07
2018-12-31T01:55:25.126Z,7.00
2018-12-31T01:57:55.892Z,7.23
2018-12-31T02:00:26.629Z,7.47
2018-12-31T02:02:57.672Z,7.27
2018-12-31T02:05:28.280Z,6.37
2018-12-31T02:07:59.006Z,6.10
2018-12-31T02:10:29.640Z,5.90
2018-12-31T02:13:00.564Z,6.00
2018-12-31T02:15:31.358Z,5.50
2018-12-31T02:18:01.862Z,6.00
2018-12-31T02:20:32.622Z,6.17
2018-12-31T02:23:03.328Z,5.77
2018-12-31T02:25:35.249Z,5.90
2018-12-31T02:28:05.810Z,5.80
2018-12-31T02:30:36.658Z,6.10
2018-12-31T02:33:07.170Z,5.67
2018-12-31T02:35:37.924Z,6.63
2018-12-31T02:38:08.596Z,6.60
2018-12-31T02:40:39.758Z,6.43
2018-12-31T02:43:10.694Z,6.17
2018-12-31T02:45:41.624Z,5.60
2018-12-31T02:48:12.367Z,6.27
2018-12-31T02:50:43.155Z,6.07
2018-12-31T02:53:13.960Z,6.27
2018-12-31T02:55:44.717Z,5.60
2018-12-31T02:58:15.767Z,5.67
2018-12-31T03:00:46.523Z,6.33
2018-12-31T03:03:17.081Z,5.73
2018-12-31T03:05:47.684Z,6.43
2018-12-31T03:08:18.569Z,5.50
2018-12-31T03:10:49.365Z,5.27
2018-12-31T03:13:20.093Z,6.60
2018-12-31T03:15:50.799Z,5.90
2018-12-31T03:18:21.400Z,6.50
2018-12-31T03:20:52.256Z,6.27
2018-12-31T03:23:24.032Z,6.30
2018-12-31T03:25:54.873Z,5.53
2018-12-31T03:28:25.730Z,5.70
2018-12-31T03:30:56.312Z,5.77
2018-12-31T03:33:26.952Z,5.67
2018-12-31T03:35:57.558Z,6.80
2018-12-31T03:38:29.352Z,6.80
2018-12-31T03:41:00.646Z,6.50
2018-12-31T03:43:31.527Z,6.50
2018-12-31T03:46:02.426Z,6.40
2018-12-31T03:48:33.144Z,6.77
2018-12-31T03:51:04.382Z,6.93
2018-12-31T03:53:35.474Z,6.37
2018-12-31T03:56:06.184Z,7.13
2018-12-31T03:58:37.187Z,6.13
2018-12-31T04:01:08.161Z,5.80
2018-12-31T04:03:38.923Z,5.53
2018-12-31T04:06:09.493Z,6.07
2018-12-31T04:08:40.129Z,6.57
2018-12-31T04:11:10.942Z,6.17
2018-12-31T04:13:41.643Z,6.20
2018-12-31T04:16:12.404Z,6.00
2018-12-31T04:18:43.174Z,6.23
2018-12-31T04:21:13.832Z,5.40
2018-12-31T04:23:44.440Z,5.90
2018-12-31T04:26:15.120Z,5.93
2018-12-31T04:28:45.719Z,4.73
2018-12-31T04:31:16.480Z,5.03
2018-12-31T04:33:47.245Z,4.70
2018-12-31T04:36:17.824Z,5.53
2018-12-31T04:38:48.456Z,5.27
2018-12-31T04:41:19.394Z,5.70
2018-12-31T04:43:50.310Z,5.50
2018-12-31T04:46:21.056Z,5.20
2018-12-31T04:48:51.803Z,5.53
2018-12-31T04:51:22.266Z,5.43
2018-12-31T04:53:52.792Z,5.47
2018-12-31T04:56:23.505Z,5.47
2018-12-31T04:58:54.034Z,6.17
2018-12-31T05:01:24.877Z,6.30
2018-12-31T05:03:55.828Z,5.73
2018-12-31T05:06:26.484Z,6.07
2018-12-31T05:08:57.183Z,6.37
2018-12-31T05:11:27.720Z,5.13
2018-12-31T05:13:58.228Z,5.47
2018-12-31T05:16:29.796Z,5.63
2018-12-31T05:19:00.592Z,6.40
2018-12-31T05:21:31.159Z,6.77
2018-12-31T05:24:02.121Z,6.17
2018-12-31T05:26:32.675Z,7.83
2018-12-31T05:29:03.479Z,7.00
2018-12-31T05:31:34.015Z,6.03
2018-12-31T05:34:05.179Z,6.47
2018-12-31T05:36:36.019Z,6.90
2018-12-31T05:39:08.437Z,6.13
2018-12-31T05:41:39.064Z,6.43
2018-12-31T05:44:09.729Z,6.87
2018-12-31T05:46:40.680Z,7.60
2018-12-31T05:49:11.214Z,5.90
2018-12-31T05:51:42.039Z,6.37
2018-12-31T05:54:12.672Z,7.03
2018-12-31T05:56:43.273Z,7.03
2018-12-31T05:59:14.114Z,6.20
2018-12-31T06:01:45.218Z,6.50
2018-12-31T06:04:15.742Z,6.80
2018-12-31T06:06:47.256Z,6.60
2018-12-31T06:09:17.988Z,6.00
2018-12-31T06:11:48.796Z,6.00
2018-12-31T06:14:19.386Z,5.57
2018-12-31T06:16:50.238Z,6.13
2018-12-31T06:19:22.652Z,5.60
2018-12-31T06:21:53.213Z,4.90
2018-12-31T06:24:24.051Z,4.60
2018-12-31T06:26:54.877Z,5.20
2018-12-31T06:29:25.553Z,4.93
2018-12-31T06:31:56.197Z,5.07
2018-12-31T06:34:26.985Z,4.90
2018-12-31T06:36:59.487Z,4.50
2018-12-31T06:39:30.315Z,4.60
2018-12-31T06:42:01.071Z,3.93
2018-12-31T06:44:31.777Z,5.03
2018-12-31T06:47:02.315Z,4.37
2018-12-31T06:49:33.177Z,4.30
2018-12-31T06:52:04.015Z,4.57
2018-12-31T06:54:34.757Z,5.23
2018-12-31T06:57:05.887Z,4.33
2018-12-31T06:59:36.621Z,4.47
2018-12-31T07:02:07.253Z,5.30
2018-12-31T07:04:38.187Z,5.03
2018-12-31T07:07:08.703Z,4.60
2018-12-31T07:09:39.487Z,5.53
2018-12-31T07:12:10.328Z,5.57
2018-12-31T07:14:40.913Z,5.40
2018-12-31T07:17:13.107Z,5.10
2018-12-31T07:19:43.710Z,5.83
2018-12-31T07:22:14.390Z,5.43
2018-12-31T07:24:45.392Z,6.03
2018-12-31T07:27:16.410Z,5.10
2018-12-31T07:29:46.947Z,5.37
2018-12-31T07:32:17.828Z,5.43
2018-12-31T07:34:48.740Z,4.47
2018-12-31T07:37:19.296Z,5.60
2018-12-31T07:39:49.944Z,5.13
2018-12-31T07:42:20.443Z,6.47
2018-12-31T07:44:50.964Z,5.90
2018-12-31T07:47:21.736Z,5.83
2018-12-31T07:49:52.282Z,5.43
2018-12-31T07:52:22.898Z,5.70
2018-12-31T07:54:53.340Z,5.30
2018-12-31T07:57:23.839Z,5.70
2018-12-31T07:59:54.375Z,5.87
2018-12-31T08:02:24.970Z,5.33
2018-12-31T08:04:55.398Z,5.63
2018-12-31T08:07:25.994Z,5.33
2018-12-31T08:09:56.596Z,7.07
2018-12-31T08:12:27.458Z,5.50
2018-12-31T08:14:57.887Z,5.07
2018-12-31T08:17:28.812Z,5.50
2018-12-31T08:19:59.339Z,5.30
2018-12-31T08:22:30.066Z,5.70
2018-12-31T08:25:00.765Z,5.87
2018-12-31T08:27:31.727Z,5.37
2018-12-31T08:30:02.683Z,5.10
2018-12-31T08:32:33.505Z,5.50
2018-12-31T08:35:04.568Z,5.83
2018-12-31T08:37:36.392Z,4.93
2018-12-31T08:40:07.226Z,5.53
2018-12-31T08:42:38.463Z,5.10
2018-12-31T08:45:10.703Z,4.80
2018-12-31T08:47:41.392Z,4.97
2018-12-31T08:50:12.037Z,5.77
2018-12-31T08:52:42.722Z,4.77
2018-12-31T08:55:13.184Z,4.37
2018-12-31T08:57:43.836Z,5.50
2018-12-31T09:00:14.556Z,5.60
2018-12-31T09:02:45.218Z,6.37
2018-12-31T09:05:15.772Z,5.67
2018-12-31T09:07:46.327Z,5.57
2018-12-31T09:10:16.735Z,5.83
2018-12-31T09:12:47.260Z,5.90
2018-12-31T09:15:18.932Z,4.47
2018-12-31T09:17:50.737Z,5.30
2018-12-31T09:20:21.397Z,5.47
2018-12-31T09:22:52.333Z,4.77
2018-12-31T09:25:23.012Z,5.17
2018-12-31T09:27:53.598Z,4.63
2018-12-31T09:30:24.371Z,4.90
2018-12-31T09:32:55.936Z,5.40
2018-12-31T09:35:26.706Z,5.77
2018-12-31T09:37:57.349Z,4.60
2018-12-31T09:40:28.027Z,5.13
2018-12-31T09:42:58.662Z,4.67
2018-12-31T09:45:29.252Z,5.40
2018-12-31T09:47:59.773Z,4.87
2018-12-31T09:50:30.251Z,6.13
2018-12-31T09:53:00.778Z,5.40
2018-12-31T09:55:31.296Z,5.50
2018-12-31T09:58:01.771Z,5.40
2018-12-31T10:00:32.347Z,6.10
2018-12-31T10:03:03.124Z,5.60
2018-12-31T10:05:33.749Z,6.50
2018-12-31T10:08:04.301Z,4.80
2018-12-31T10:10:34.833Z,6.40
2018-12-31T10:13:05.577Z,5.40
2018-12-31T10:15:36.342Z,5.20
2018-12-31T10:18:06.955Z,7.03
2018-12-31T10:20:37.803Z,4.77
2018-12-31T10:23:08.303Z,4.70
2018-12-31T10:25:39.085Z,5.03
2018-12-31T10:28:09.807Z,3.80
2018-12-31T10:30:40.376Z,4.70
2018-12-31T10:33:10.896Z,4.03
2018-12-31T10:35:41.701Z,5.20
2018-12-31T10:38:12.450Z,6.07
2018-12-31T10:40:43.038Z,5.50
2018-12-31T10:43:13.746Z,5.27
2018-12-31T10:45:44.588Z,5.50
2018-12-31T10:48:15.258Z,5.43
2018-12-31T10:50:46.060Z,5.03
2018-12-31T10:53:16.673Z,5.37
2018-12-31T10:55:47.671Z,5.00
2018-12-31T10:58:18.719Z,4.97
2018-12-31T11:00:49.627Z,4.60
2018-12-31T11:03:20.360Z,4.67
2018-12-31T11:05:51.115Z,4.43
2018-12-31T11:08:21.939Z,5.20
2018-12-31T11:10:53.150Z,5.00
2018-12-31T11:13:23.839Z,4.60
2018-12-31T11:15:54.691Z,5.10
2018-12-31T11:18:25.841Z,4.20
2018-12-31T11:20:57.475Z,4.80
2018-12-31T11:23:28.289Z,4.77
2018-12-31T11:25:59.195Z,5.43
2018-12-31T11:28:30.043Z,5.10
2018-12-31T11:31:00.745Z,4.97
2018-12-31T11:33:31.337Z,5.10
2018-12-31T11:36:02.017Z,6.60
2018-12-31T11:38:32.946Z,7.03
2018-12-31T11:41:03.829Z,7.93
2018-12-31T11:43:34.519Z,7.50
2018-12-31T11:46:05.001Z,8.07
2018-12-31T11:48:35.751Z,8.53
2018-12-31T11:51:06.258Z,7.37
2018-12-31T11:53:37.051Z,9.13
2018-12-31T11:56:07.466Z,8.90
2018-12-31T11:58:38.140Z,9.73
2018-12-31T12:01:09.316Z,13.80
2018-12-31T12:03:39.720Z,8.87
2018-12-31T12:06:10.482Z,8.67
2018-12-31T12:08:41.169Z,10.83
2018-12-31T12:11:11.810Z,9.33
2018-12-31T12:13:42.352Z,10.30
2018-12-31T12:16:12.950Z,10.43
2018-12-31T12:18:43.502Z,10.57
2018-12-31T12:21:14.361Z,11.80
2018-12-31T12:23:44.951Z,12.10
2018-12-31T12:26:15.859Z,11.40
2018-12-31T12:28:47.549Z,10.03
2018-12-31T12:31:18.430Z,10.57
2018-12-31T12:33:49.975Z,10.50
2018-12-31T12:36:20.613Z,9.33
2018-12-31T12:38:51.151Z,7.93
2018-12-31T12:41:21.750Z,6.53
2018-12-31T12:43:53.975Z,6.20
2018-12-31T12:46:26.193Z,7.37
2018-12-31T12:48:57.045Z,6.60
2018-12-31T12:51:27.616Z,7.20
2018-12-31T12:53:58.306Z,7.23
2018-12-31T12:56:29.105Z,7.20
2018-12-31T12:59:00.250Z,6.47
2018-12-31T13:01:30.933Z,6.97
2018-12-31T13:04:03.543Z,7.97
2018-12-31T13:06:33.954Z,6.90
2018-12-31T13:09:05.948Z,8.23
2018-12-31T13:11:36.598Z,7.37
2018-12-31T13:14:07.254Z,7.43
2018-12-31T13:16:38.090Z,6.87
2018-12-31T13:19:08.880Z,6.40
2018-12-31T13:21:39.884Z,6.63
2018-12-31T13:24:10.798Z,6.43
2018-12-31T13:26:43.723Z,6.20
2018-12-31T13:29:13.538Z,6.10
2018-12-31T13:31:44.259Z,4.77
2018-12-31T13:34:14.674Z,4.57
2018-12-31T13:36:45.505Z,5.37
2018-12-31T13:39:16.287Z,4.47
2018-12-31T13:41:47.461Z,4.60
2018-12-31T13:44:18.269Z,5.10
2018-12-31T13:46:48.770Z,4.90
2018-12-31T13:49:20.993Z,4.97
2018-12-31T13:51:52.412Z,7.03
2018-12-31T13:54:22.834Z,6.20
2018-12-31T13:56:53.471Z,7.37
2018-12-31T13:59:24.194Z,15.87
2018-12-31T14:01:54.595Z,7.83
2018-12-31T14:04:26.901Z,8.77
2018-12-31T14:06:57.480Z,9.93
2018-12-31T14:09:28.141Z,9.80
2018-12-31T14:11:59.143Z,8.33
2018-12-31T14:14:29.686Z,9.70
2018-12-31T14:17:00.797Z,11.20
2018-12-31T14:19:31.665Z,12.87
2018-12-31T14:22:02.315Z,10.73
2018-12-31T14:24:32.837Z,12.97
2018-12-31T14:27:04.882Z,14.23
2018-12-31T14:29:35.345Z,14.40
2018-12-31T14:32:06.006Z,14.63
2018-12-31T14:34:36.470Z,12.97
2018-12-31T14:37:07.078Z,15.13
2018-12-31T14:39:37.812Z,17.77
2018-12-31T14:42:08.266Z,17.10
2018-12-31T14:44:39.434Z,14.87
2018-12-31T14:47:09.993Z,15.97
2018-12-31T14:49:40.579Z,15.63
2018-12-31T14:52:11.206Z,16.17
2018-12-31T14:54:41.700Z,14.77
2018-12-31T14:57:12.184Z,14.63
2018-12-31T14:59:42.889Z,17.03
2018-12-31T15:02:13.361Z,14.53
2018-12-31T15:04:44.094Z,16.00
2018-12-31T15:07:14.885Z,15.63
2018-12-31T15:09:45.414Z,17.47
2018-12-31T15:12:15.814Z,16.10
2018-12-31T15:14:47.369Z,16.40
2018-12-31T15:17:18.292Z,14.57
2018-12-31T15:19:48.990Z,18.73
2018-12-31T15:22:19.939Z,18.20
2018-12-31T15:24:51.763Z,22.03
2018-12-31T15:27:22.576Z,19.70
2018-12-31T15:29:55.343Z,21.37
2018-12-31T15:32:25.818Z,17.23
2018-12-31T15:34:56.590Z,18.47
2018-12-31T15:37:27.095Z,18.03
2018-12-31T15:39:58.092Z,17.50
2018-12-31T15:42:28.901Z,15.27
2018-12-31T15:44:59.521Z,17.07
2018-12-31T15:47:30.324Z,17.77
2018-12-31T15:50:01.018Z,18.03
2018-12-31T15:52:31.936Z,16.87
2018-12-31T15:55:02.512Z,16.07
2018-12-31T15:57:33.171Z,17.40
2018-12-31T16:00:03.970Z,18.13
2018-12-31T16:02:34.998Z,17.43
2018-12-31T16:05:05.899Z,17.07
2018-12-31T16:07:36.559Z,16.03
2018-12-31T16:10:07.946Z,17.67
2018-12-31T16:12:38.863Z,17.13
2018-12-31T16:15:10.326Z,16.40
2018-12-31T16:17:40.941Z,15.60
2018-12-31T16:20:13.420Z,15.53
2018-12-31T16:22:44.457Z,16.10
2018-12-31T16:25:15.303Z,184.40
2018-12-31T16:27:45.966Z,21.67
2018-12-31T16:30:16.799Z,16.30
2018-12-31T16:32:48.128Z,17.23
2018-12-31T16:35:19.125Z,14.17
2018-12-31T16:37:49.938Z,13.30
2018-12-31T16:40:20.797Z,13.83
2018-12-31T16:42:51.699Z,12.70
2018-12-31T16:45:22.630Z,12.60
2018-12-31T16:47:53.193Z,15.37
2018-12-31T16:50:24.237Z,12.77
2018-12-31T16:52:54.901Z,16.93
2018-12-31T16:55:25.885Z,14.70
2018-12-31T16:57:56.892Z,12.83
2018-12-31T17:00:28.259Z,14.83
2018-12-31T17:02:59.769Z,13.60
2018-12-31T17:05:30.367Z,12.73
2018-12-31T17:08:01.224Z,12.47
2018-12-31T17:10:32.170Z,10.80
2018-12-31T17:13:03.331Z,9.57
2018-12-31T17:15:34.279Z,9.37
2018-12-31T17:18:04.840Z,11.20
2018-12-31T17:20:35.800Z,10.97
2018-12-31T17:23:06.608Z,10.17
2018-12-31T17:25:37.668Z,9.07
2018-12-31T17:28:08.370Z,11.30
2018-12-31T17:30:38.869Z,9.83
2018-12-31T17:33:09.577Z,12.73
2018-12-31T17:35:40.222Z,12.17
2018-12-31T17:38:11.030Z,16.10
2018-12-31T17:40:41.698Z,13.93
2018-12-31T17:43:12.819Z,13.07
2018-12-31T17:45:44.497Z,14.27
2018-12-31T17:48:15.273Z,15.33
2018-12-31T17:50:46.110Z,13.60
2018-12-31T17:53:17.052Z,17.77
2018-12-31T17:55:49.488Z,15.83
2018-12-31T17:58:20.121Z,18.40
2018-12-31T18:00:50.671Z,22.67
2018-12-31T18:03:22.983Z,17.10
2018-12-31T18:05:53.909Z,18.63
2018-12-31T18:08:24.491Z,17.60
2018-12-31T18:10:55.175Z,21.30
2018-12-31T18:13:26.139Z,19.93
2018-12-31T18:15:56.706Z,22.53
2018-12-31T18:18:27.717Z,20.57
2018-12-31T18:20:58.587Z,21.53
2018-12-31T18:23:29.254Z,19.73
2018-12-31T18:26:00.061Z,17.13
2018-12-31T18:28:30.805Z,20.57
2018-12-31T18:31:02.510Z,24.47
2018-12-31T18:33:33.175Z,26.37
2018-12-31T18:36:04.058Z,26.17
2018-12-31T18:38:35.294Z,22.63
2018-12-31T18:41:05.897Z,20.33
2018-12-31T18:43:36.659Z,21.77
2018-12-31T18:46:07.242Z,27.70
2018-12-31T18:48:38.243Z,29.10
2018-12-31T18:51:09.624Z,27.83
2018-12-31T18:53:40.447Z,28.90
2018-12-31T18:56:12.817Z,32.13
2018-12-31T18:58:43.545Z,33.00
2018-12-31T19:01:14.469Z,31.13
2018-12-31T19:03:45.324Z,29.23
2018-12-31T19:06:16.001Z,31.93
2018-12-31T19:08:46.968Z,27.10
2018-12-31T19:11:17.738Z,30.40
2018-12-31T19:13:48.864Z,29.80
2018-12-31T19:16:19.586Z,26.33
2018-12-31T19:18:50.261Z,26.47
2018-12-31T19:21:21.254Z,30.20
2018-12-31T19:23:52.088Z,30.10
2018-12-31T19:26:22.769Z,28.63
2018-12-31T19:28:53.515Z,29.83
2018-12-31T19:31:24.244Z,30.47
2018-12-31T19:33:55.840Z,29.17
2018-12-31T19:36:28.629Z,23.73
2018-12-31T19:38:59.390Z,33.27
2018-12-31T19:41:30.291Z,26.70
2018-12-31T19:44:02.606Z,25.13
2018-12-31T19:46:33.591Z,24.03
2018-12-31T19:49:04.281Z,25.67
2018-12-31T19:51:34.898Z,24.57
2018-12-31T19:54:05.641Z,28.97
2018-12-31T19:56:36.387Z,25.20
2018-12-31T19:59:07.590Z,27.00
2018-12-31T20:01:38.726Z,24.83
2018-12-31T20:04:09.639Z,27.23
2018-12-31T20:06:40.319Z,32.13
2018-12-31T20:09:11.157Z,31.93
2018-12-31T20:11:42.097Z,33.17
2018-12-31T20:14:12.642Z,31.37
2018-12-31T20:16:43.327Z,33.20
2018-12-31T20:19:13.981Z,43.37
2018-12-31T20:21:44.519Z,29.73
2018-12-31T20:24:15.433Z,42.93
2018-12-31T20:26:46.423Z,29.77
2018-12-31T20:29:17.183Z,30.87
2018-12-31T20:31:48.143Z,28.20
2018-12-31T20:34:18.790Z,27.67
2018-12-31T20:36:49.578Z,27.40
2018-12-31T20:39:20.632Z,27.80
2018-12-31T20:41:51.663Z,30.93
2018-12-31T20:44:22.551Z,28.53
2018-12-31T20:46:53.211Z,28.97
2018-12-31T20:49:23.886Z,32.03
2018-12-31T20:51:55.217Z,32.40
2018-12-31T20:54:27.007Z,32.87
2018-12-31T20:56:59.737Z,31.50
2018-12-31T20:59:31.287Z,29.50
2018-12-31T21:02:01.847Z,27.60
2018-12-31T21:04:32.919Z,27.83
2018-12-31T21:07:03.418Z,33.30
2018-12-31T21:09:33.972Z,26.03
2018-12-31T21:12:04.573Z,24.17
2018-12-31T21:14:35.160Z,28.37
2018-12-31T21:17:05.970Z,28.00
2018-12-31T21:19:37.192Z,24.93
2018-12-31T21:22:08.137Z,28.00
2018-12-31T21:24:38.871Z,27.63
2018-12-31T21:27:09.295Z,23.40
2018-12-31T21:29:40.058Z,26.83
2018-12-31T21:32:10.497Z,27.47
2018-12-31T21:34:41.397Z,25.63
2018-12-31T21:37:13.165Z,26.20
2018-12-31T21:39:43.780Z,26.80
2018-12-31T21:42:14.905Z,28.63
2018-12-31T21:44:45.567Z,29.43
2018-12-31T21:47:16.325Z,27.10
2018-12-31T21:49:46.834Z,28.17
2018-12-31T21:52:17.552Z,25.47
2018-12-31T21:54:48.191Z,29.73
2018-12-31T21:57:18.705Z,24.77
2018-12-31T21:59:49.297Z,26.83
2018-12-31T22:02:21.089Z,24.83
2018-12-31T22:04:51.860Z,26.70
2018-12-31T22:07:22.385Z,28.90
2018-12-31T22:09:52.971Z,31.20
2018-12-31T22:12:23.443Z,30.97
2018-12-31T22:14:54.239Z,29.03
2018-12-31T22:17:25.075Z,49.40
2018-12-31T22:19:56.510Z,30.23
2018-12-31T22:22:27.234Z,35.10
2018-12-31T22:24:58.230Z,30.83
2018-12-31T22:27:29.276Z,33.47
2018-12-31T22:30:00.237Z,36.13
2018-12-31T22:32:31.120Z,35.70
2018-12-31T22:35:01.762Z,33.03
2018-12-31T22:37:32.606Z,38.20
2018-12-31T22:40:03.856Z,34.53
2018-12-31T22:42:34.554Z,37.57
2018-12-31T22:45:05.366Z,32.73
2018-12-31T22:47:36.065Z,35.97
2018-12-31T22:50:08.940Z,32.17
2018-12-31T22:52:39.523Z,29.60
2018-12-31T22:55:10.210Z,32.47
2018-12-31T22:57:40.974Z,37.93
2018-12-31T23:00:12.467Z,33.40
2018-12-31T23:02:44.902Z,29.00
2018-12-31T23:05:16.446Z,44.73
2018-12-31T23:07:48.210Z,54.47
2018-12-31T23:10:18.734Z,78.27
2018-12-31T23:12:49.687Z,63.13
2018-12-31T23:15:23.604Z,51.30
2018-12-31T23:17:54.491Z,48.57
2018-12-31T23:20:25.504Z,36.43
2018-12-31T23:22:56.058Z,86.90
2018-12-31T23:25:26.725Z,41.37
2018-12-31T23:27:57.459Z,31.20
2018-12-31T23:30:27.909Z,30.20
2018-12-31T23:32:58.631Z,30.90
2018-12-31T23:35:30.390Z,32.10
2018-12-31T23:38:01.997Z,31.20
2018-12-31T23:40:32.418Z,31.20
2018-12-31T23:43:06.518Z,32.00
2018-12-31T23:45:34.969Z,31.40
2018-12-31T23:48:05.628Z,30.83
2018-12-31T23:50:36.500Z,30.60
2018-12-31T23:53:08.141Z,32.93
2018-12-31T23:55:38.576Z,31.60
2018-12-31T23:58:09.106Z,35.70
